.
WxDataArchive / Data Records for 2015-07-03
2015-07-02 July 2015 2015-07-04

Data Records for Friday, 03 July 2015

Time	Temp	Chill	HIndex	Humid	Dewpt	 Wind 	HiWind	WindDir	Rain 	Barom
-----	----	-----	------	-----	-----	------	------	-------	-----	-----
00:00	62.7	62.7	62.7	76	55.0	0	1	90	0.00	29.935 
00:05	62.6	62.6	62.6	76	54.9	0	0	---	0.00	29.935 
00:10	62.4	62.4	62.4	77	55.1	0	0	---	0.00	29.935 
00:15	62.3	62.3	62.3	77	55.0	0	0	---	0.00	29.935 
00:20	62.1	62.1	62.1	77	54.8	0	0	---	0.00	29.935 
00:25	61.8	61.8	61.8	78	54.9	0	0	---	0.00	29.935 
00:30	61.5	61.5	61.5	78	54.6	0	0	---	0.00	29.941 
00:35	61.2	61.2	61.2	79	54.6	0	0	---	0.00	29.941 
00:40	61.0	61.0	61.0	80	54.8	0	1	90	0.00	29.941 
00:45	60.7	60.7	60.7	80	54.5	0	0	---	0.00	29.945 
00:50	60.5	60.5	60.5	81	54.6	0	0	---	0.00	29.945 
00:55	60.2	60.2	60.2	81	54.3	0	0	---	0.00	29.945 
01:00	60.2	60.2	60.2	81	54.3	0	0	---	0.00	29.942 
01:05	60.1	60.1	60.1	82	54.6	0	0	---	0.00	29.942 
01:10	59.9	59.9	59.9	83	54.7	0	0	---	0.00	29.942 
01:15	59.8	59.8	59.8	83	54.6	0	0	---	0.00	29.937 
01:20	59.8	59.8	59.8	83	54.6	0	0	---	0.00	29.937 
01:25	59.6	59.6	59.6	84	54.8	0	0	---	0.00	29.937 
01:30	59.6	59.6	59.6	84	54.8	0	0	---	0.00	29.939 
01:35	59.5	59.5	59.5	84	54.7	0	0	---	0.00	29.939 
01:40	59.5	59.5	59.5	84	54.7	0	1	90	0.00	29.939 
01:45	59.5	59.5	59.5	84	54.7	0	0	---	0.00	29.936 
01:50	59.5	59.5	59.5	84	54.7	0	0	---	0.00	29.936 
01:55	59.3	59.3	59.3	85	54.8	0	0	---	0.00	29.936 
02:00	59.3	59.3	59.3	85	54.8	0	0	---	0.00	29.939 
02:05	59.3	59.3	59.3	85	54.8	0	1	90	0.00	29.939 
02:10	59.3	59.3	59.3	85	54.8	0	0	---	0.00	29.939 
02:15	59.3	59.3	59.3	84	54.5	0	0	---	0.00	29.938 
02:20	59.2	59.2	59.2	84	54.4	0	0	---	0.00	29.938 
02:25	59.2	59.2	59.2	85	54.7	0	0	---	0.00	29.938 
02:30	59.0	59.0	59.0	85	54.5	0	0	---	0.00	29.932 
02:35	58.9	58.9	58.9	85	54.4	0	0	---	0.00	29.932 
02:40	58.9	58.9	58.9	85	54.4	0	0	---	0.00	29.932 
02:45	58.7	58.7	58.7	86	54.5	0	0	---	0.00	29.934 
02:50	58.6	58.6	58.6	86	54.4	0	0	---	0.00	29.934 
02:55	58.6	58.6	58.6	87	54.7	0	0	---	0.00	29.934 
03:00	58.6	58.6	58.6	87	54.7	0	0	---	0.00	29.937 
03:05	58.4	58.4	58.4	87	54.5	0	0	---	0.00	29.937 
03:10	58.4	58.4	58.4	87	54.5	0	0	---	0.00	29.937 
03:15	58.4	58.4	58.4	87	54.5	0	0	---	0.00	29.932 
03:20	58.4	58.4	58.4	88	54.9	0	0	---	0.00	29.932 
03:25	58.4	58.4	58.4	88	54.9	0	1	90	0.00	29.932 
03:30	58.4	58.4	58.4	88	54.9	0	0	---	0.00	29.930 
03:35	58.4	58.4	58.4	88	54.9	0	0	---	0.00	29.930 
03:40	58.4	58.4	58.4	88	54.9	0	0	---	0.00	29.930 
03:45	58.6	58.6	58.6	88	55.1	0	0	---	0.00	29.926 
03:50	58.6	58.6	58.6	88	55.1	0	0	---	0.00	29.926 
03:55	58.7	58.7	58.7	88	55.2	0	3	90	0.00	29.926 
04:00	58.7	58.7	58.7	87	54.8	0	1	90	0.00	29.926 
04:05	58.7	58.7	58.7	87	54.8	0	1	90	0.00	29.926 
04:10	58.7	58.7	58.7	87	54.8	0	0	---	0.00	29.926 
04:15	58.7	58.7	58.7	87	54.8	0	0	---	0.00	29.925 
04:20	58.7	58.7	58.7	88	55.2	0	1	90	0.00	29.925 
04:25	58.7	58.7	58.7	87	54.8	0	1	90	0.00	29.925 
04:30	58.7	58.7	58.7	87	54.8	0	1	90	0.00	29.918 
04:35	58.7	58.7	58.7	87	54.8	0	1	90	0.00	29.918 
04:40	58.6	58.6	58.6	87	54.7	0	0	---	0.00	29.918 
04:45	58.4	58.4	58.4	88	54.9	0	1	90	0.00	29.916 
04:50	58.4	58.4	58.4	88	54.9	0	1	90	0.00	29.916 
04:55	58.4	58.4	58.4	88	54.9	0	1	90	0.00	29.916 
05:00	58.3	58.3	58.3	88	54.8	0	1	90	0.00	29.917 
05:05	58.3	58.3	58.3	88	54.8	0	2	90	0.00	29.917 
05:10	58.3	58.3	58.3	88	54.8	0	2	90	0.00	29.917 
05:15	58.3	58.3	58.3	88	54.8	0	1	90	0.00	29.914 
05:20	58.3	58.3	58.3	88	54.8	0	3	90	0.00	29.914 
05:25	58.3	58.3	58.3	89	55.1	0	1	90	0.00	29.914 
05:30	58.3	58.3	58.3	89	55.1	0	3	90	0.00	29.913 
05:35	58.3	58.3	58.3	89	55.1	1	4	90	0.00	29.913 
05:40	58.3	58.3	58.3	89	55.1	0	2	90	0.00	29.913 
05:45	58.3	58.3	58.3	89	55.1	0	1	90	0.00	29.915 
05:50	58.3	58.3	58.3	89	55.1	0	3	45	0.00	29.915 
05:55	58.1	58.1	58.1	90	55.2	1	5	45	0.00	29.915 
06:00	58.1	58.1	58.1	90	55.2	1	5	112	0.00	29.911 
06:05	58.3	58.3	58.3	90	55.4	1	3	90	0.00	29.911 
06:10	58.3	58.3	58.3	90	55.4	1	3	90	0.00	29.911 
06:15	58.3	58.3	58.3	90	55.4	1	3	112	0.00	29.915 
06:20	58.3	58.3	58.3	90	55.4	0	3	112	0.00	29.915 
06:25	58.3	58.3	58.3	90	55.4	1	4	112	0.00	29.915 
06:30	58.3	58.3	58.3	90	55.4	0	3	112	0.00	29.916 
06:35	58.4	58.4	58.4	90	55.5	1	4	112	0.00	29.916 
06:40	58.4	58.4	58.4	90	55.5	1	3	90	0.00	29.916 
06:45	58.4	58.4	58.4	90	55.5	0	2	90	0.00	29.918 
06:50	58.4	58.4	58.4	90	55.5	0	2	90	0.00	29.918 
06:55	58.4	58.4	58.4	90	55.5	1	4	90	0.00	29.918 
07:00	58.4	58.4	58.4	90	55.5	0	2	90	0.00	29.920 
07:05	58.4	58.4	58.4	90	55.5	1	4	90	0.00	29.920 
07:10	58.4	58.4	58.4	90	55.5	1	2	90	0.00	29.920 
07:15	58.3	58.3	58.3	90	55.4	0	2	90	0.00	29.929 
07:20	58.3	58.3	58.3	90	55.4	0	2	90	0.00	29.929 
07:25	58.3	58.3	58.3	90	55.4	0	2	90	0.00	29.929 
07:30	58.3	58.3	58.3	90	55.4	0	2	90	0.00	29.933 
07:35	58.6	58.6	58.6	91	56.0	0	2	90	0.00	29.933 
07:40	58.7	58.7	58.7	90	55.8	1	3	90	0.00	29.933 
07:45	59.3	59.3	59.3	90	56.4	0	2	90	0.00	29.934 
07:50	59.8	59.8	59.8	89	56.5	1	4	90	0.00	29.934 
07:55	60.2	60.2	60.2	88	56.6	1	4	90	0.00	29.934 
08:00	60.5	60.5	60.5	87	56.6	1	3	90	0.00	29.939 
08:05	60.5	60.5	60.5	87	56.6	0	3	90	0.00	29.939 
08:10	60.5	60.5	60.5	87	56.6	1	3	68	0.00	29.939 
08:15	60.4	60.4	60.4	87	56.5	1	4	68	0.00	29.942 
08:20	60.2	60.2	60.2	87	56.3	2	4	68	0.00	29.942 
08:25	60.2	60.2	60.2	87	56.3	2	5	90	0.00	29.942 
08:30	60.2	60.2	60.2	87	56.3	1	4	68	0.00	29.934 
08:35	60.4	60.4	60.4	88	56.8	0	2	68	0.00	29.934 
08:40	60.7	60.7	60.7	87	56.8	1	3	68	0.00	29.934 
08:45	61.0	61.0	61.0	87	57.1	1	3	68	0.00	29.943 
08:50	61.2	61.2	61.2	86	57.0	0	4	68	0.00	29.943 
08:55	61.3	61.3	61.3	85	56.7	1	5	68	0.00	29.943 
09:00	61.3	61.3	61.3	86	57.1	1	3	112	0.00	29.943 
09:05	61.6	61.6	61.6	85	57.0	1	3	112	0.00	29.943 
09:10	61.8	61.8	61.8	84	56.9	1	4	112	0.00	29.943 
09:15	62.0	62.0	62.0	84	57.1	2	4	112	0.00	29.941 
09:20	62.4	62.4	62.4	84	57.5	1	4	112	0.00	29.941 
09:25	62.9	62.9	62.9	83	57.7	1	3	112	0.00	29.941 
09:30	63.7	63.7	63.7	81	57.8	1	3	68	0.00	29.935 
09:35	64.5	64.5	64.5	80	58.2	1	6	68	0.00	29.935 
09:40	64.8	64.8	64.8	78	57.8	1	5	90	0.00	29.935 
09:45	65.0	65.0	65.0	77	57.6	2	5	90	0.00	29.932 
09:50	65.3	65.3	65.3	76	57.5	2	6	112	0.00	29.932 
09:55	65.8	65.8	65.8	75	57.6	1	4	90	0.00	29.932 
10:00	65.6	65.6	65.6	74	57.1	2	6	90	0.00	29.930 
10:05	65.2	65.2	65.2	76	57.4	2	5	112	0.00	29.930 
10:10	65.3	65.3	65.3	77	57.9	1	3	112	0.00	29.930 
10:15	65.5	65.5	65.5	76	57.7	1	5	112	0.00	29.932 
10:20	65.8	65.8	65.8	76	58.0	0	2	112	0.00	29.932 
10:25	66.0	66.0	66.0	74	57.5	1	5	112	0.00	29.932 
10:30	66.0	66.0	66.0	74	57.5	1	4	112	0.00	29.927 
10:35	66.3	66.3	66.3	75	58.1	1	4	112	0.00	29.927 
10:40	66.9	66.9	66.9	71	57.2	3	7	112	0.00	29.927 
10:45	67.4	67.4	67.4	70	57.3	3	9	90	0.00	29.926 
10:50	68.3	68.3	68.3	69	57.7	1	4	112	0.00	29.926 
10:55	68.9	68.9	68.9	69	58.3	1	4	112	0.00	29.926 
11:00	69.1	69.1	69.1	66	57.3	0	2	112	0.00	29.917 
11:05	69.4	69.4	69.4	67	58.0	1	5	90	0.00	29.917 
11:10	69.8	69.8	69.8	62	56.2	2	7	90	0.00	29.917 
11:15	69.9	69.9	69.9	63	56.7	2	5	90	0.00	29.914 
11:20	70.1	70.1	70.1	62	56.5	2	4	90	0.00	29.914 
11:25	70.4	70.4	70.4	63	57.2	1	4	90	0.00	29.914 
11:30	71.1	71.1	71.1	62	57.4	2	5	68	0.00	29.913 
11:35	71.6	71.6	71.6	61	57.4	1	6	90	0.00	29.913 
11:40	72.0	72.0	72.0	60	57.3	2	5	90	0.00	29.913 
11:45	72.3	72.3	72.3	58	56.7	2	6	90	0.00	29.913 
11:50	72.3	72.3	72.3	59	57.2	1	5	90	0.00	29.913 
11:55	72.1	72.1	72.1	58	56.5	2	7	112	0.00	29.913 
12:00	72.0	72.0	72.0	58	56.4	1	4	68	0.00	29.914 
12:05	71.8	71.8	71.8	58	56.2	2	4	90	0.00	29.914 
12:10	71.8	71.8	71.8	62	58.1	1	4	90	0.00	29.914 
12:15	72.0	72.0	72.0	57	55.9	2	4	68	0.00	29.921 
12:20	72.5	72.5	72.5	57	56.4	1	4	90	0.00	29.921 
12:25	73.0	73.0	73.0	57	56.9	1	4	90	0.00	29.921 
12:30	72.8	72.8	72.8	55	55.7	1	3	90	0.00	29.921 
12:35	72.5	72.5	72.5	55	55.4	2	4	90	0.00	29.921 
12:40	72.1	72.1	72.1	56	55.5	2	5	90	0.00	29.921 
12:45	72.1	72.1	72.1	55	55.0	1	4	90	0.00	29.927 
12:50	72.1	72.1	72.1	57	56.0	1	5	90	0.00	29.927 
12:55	72.3	72.3	72.3	58	56.7	1	3	68	0.00	29.927 
13:00	72.3	72.3	72.3	57	56.2	0	2	68	0.00	29.929 
13:05	72.3	72.3	72.3	56	55.7	1	3	68	0.00	29.929 
13:10	72.3	72.3	72.3	58	56.7	0	2	68	0.00	29.929 
13:15	72.3	72.3	72.3	56	55.7	1	3	68	0.00	29.928 
13:20	72.3	72.3	72.3	58	56.7	1	6	68	0.00	29.928 
13:25	72.5	72.5	72.5	58	56.9	1	5	68	0.00	29.928 
13:30	72.8	72.8	72.8	57	56.7	1	2	68	0.00	29.923 
13:35	73.2	73.2	73.2	58	57.5	2	7	68	0.00	29.923 
13:40	73.2	73.2	73.2	57	57.0	1	6	90	0.00	29.923 
13:45	73.0	73.0	73.0	58	57.3	1	5	90	0.00	29.916 
13:50	72.7	72.7	72.7	59	57.5	1	5	90	0.00	29.916 
13:55	72.7	72.7	72.7	58	57.1	1	3	90	0.00	29.916 
14:00	72.7	72.7	72.7	58	57.1	1	2	90	0.00	29.916 
14:05	72.8	72.8	72.8	58	57.1	1	3	90	0.00	29.916 
14:10	73.0	73.0	73.0	57	56.9	1	3	90	0.00	29.916 
14:15	73.0	73.0	73.0	54	55.4	1	4	90	0.00	29.915 
14:20	73.0	73.0	73.0	55	55.9	1	2	90	0.00	29.915 
14:25	73.2	73.2	73.2	55	56.0	0	3	90	0.00	29.915 
14:30	73.2	73.2	73.2	56	56.5	1	4	90	0.00	29.914 
14:35	73.0	73.0	73.0	54	55.4	1	3	90	0.00	29.914 
14:40	72.8	72.8	72.8	55	55.7	1	4	90	0.00	29.914 
14:45	72.8	72.8	72.8	56	56.2	0	3	90	0.00	29.913 
14:50	72.8	72.8	72.8	54	55.2	0	3	90	0.00	29.913 
14:55	72.8	72.8	72.8	57	56.7	0	3	90	0.00	29.913 
15:00	72.8	72.8	72.8	56	56.2	1	3	90	0.00	29.908 
15:05	73.0	73.0	73.0	56	56.4	1	4	90	0.00	29.908 
15:10	73.2	73.2	73.2	55	56.0	0	2	90	0.00	29.908 
15:15	73.5	73.5	73.5	58	57.8	0	3	90	0.00	29.900 
15:20	73.5	73.5	73.5	56	56.8	1	3	90	0.00	29.900 
15:25	73.2	73.2	73.2	55	56.0	0	2	90	0.00	29.900 
15:30	73.0	73.0	73.0	57	56.9	0	3	90	0.00	29.898 
15:35	73.0	73.0	73.0	56	56.4	0	2	90	0.00	29.898 
15:40	73.0	73.0	73.0	56	56.4	1	2	90	0.00	29.898 
15:45	73.3	73.3	73.3	57	57.1	1	3	90	0.00	29.896 
15:50	73.7	73.7	73.7	56	57.0	1	3	90	0.00	29.896 
15:55	74.0	74.0	74.0	57	57.8	1	3	90	0.00	29.896 
16:00	74.4	74.4	74.4	58	58.6	0	2	90	0.00	29.892 
16:05	74.6	74.6	74.6	54	56.8	0	2	90	0.00	29.892 
16:10	74.7	74.7	74.7	55	57.4	1	4	90	0.00	29.892 
16:15	74.4	74.4	74.4	54	56.7	1	2	90	0.00	29.886 
16:20	73.9	73.9	73.9	54	56.2	1	4	90	0.00	29.886 
16:25	73.7	73.7	73.7	56	57.0	0	1	90	0.00	29.886 
16:30	73.7	73.7	73.7	58	58.0	0	2	90	0.00	29.883 
16:35	73.7	73.7	73.7	55	56.5	1	3	90	0.00	29.883 
16:40	73.7	73.7	73.7	56	57.0	0	2	90	0.00	29.883 
16:45	73.9	73.9	73.9	57	57.7	1	3	90	0.00	29.882 
16:50	74.0	74.0	74.0	57	57.8	1	3	90	0.00	29.882 
16:55	74.2	74.2	74.2	56	57.5	0	3	90	0.00	29.882 
17:00	74.4	74.4	74.4	56	57.7	0	1	90	0.00	29.882 
17:05	74.4	74.4	74.4	56	57.7	0	1	90	0.00	29.882 
17:10	74.4	74.4	74.4	55	57.2	0	2	90	0.00	29.882 
17:15	74.4	74.4	74.4	58	58.6	0	1	90	0.00	29.882 
17:20	74.2	74.2	74.2	56	57.5	0	2	90	0.00	29.882 
17:25	74.2	74.2	74.2	57	58.0	0	4	90	0.00	29.882 
17:30	74.0	74.0	74.0	56	57.3	0	2	90	0.00	29.880 
17:35	73.9	73.9	73.9	56	57.2	0	3	90	0.00	29.880 
17:40	73.7	73.7	73.7	56	57.0	0	2	90	0.00	29.880 
17:45	73.7	73.7	73.7	57	57.5	0	2	90	0.00	29.871 
17:50	73.5	73.5	73.5	55	56.3	1	3	90	0.00	29.871 
17:55	73.5	73.5	73.5	56	56.8	0	2	90	0.00	29.871 
18:00	73.5	73.5	73.5	58	57.8	0	3	90	0.00	29.868 
18:05	73.5	73.5	73.5	57	57.3	0	2	90	0.00	29.868 
18:10	73.5	73.5	73.5	58	57.8	0	0	---	0.00	29.868 
18:15	73.3	73.3	73.3	57	57.1	0	1	90	0.00	29.867 
18:20	73.3	73.3	73.3	57	57.1	0	2	90	0.00	29.867 
18:25	73.3	73.3	73.3	58	57.6	0	1	90	0.00	29.867 
18:30	73.3	73.3	73.3	57	57.1	0	2	90	0.00	29.868 
18:35	73.3	73.3	73.3	57	57.1	0	1	90	0.00	29.868 
18:40	73.3	73.3	73.3	58	57.6	0	1	90	0.00	29.868 
18:45	73.2	73.2	73.2	57	57.0	0	0	---	0.00	29.868 
18:50	73.2	73.2	73.2	57	57.0	0	0	---	0.00	29.868 
18:55	73.2	73.2	73.2	58	57.5	0	0	---	0.00	29.868 
19:00	73.0	73.0	73.0	57	56.9	0	1	90	0.00	29.866 
19:05	73.2	73.2	73.2	58	57.5	0	1	90	0.00	29.866 
19:10	73.2	73.2	73.2	58	57.5	0	0	---	0.00	29.866 
19:15	73.2	73.2	73.2	59	58.0	0	1	90	0.00	29.861 
19:20	73.3	73.3	73.3	59	58.1	0	1	90	0.00	29.861 
19:25	73.3	73.3	73.3	58	57.6	0	1	90	0.00	29.861 
19:30	73.3	73.3	73.3	58	57.6	0	1	90	0.00	29.863 
19:35	73.3	73.3	73.3	59	58.1	0	1	90	0.00	29.863 
19:40	73.5	73.5	73.5	59	58.3	0	0	---	0.00	29.863 
19:45	73.5	73.5	73.5	59	58.3	0	1	90	0.00	29.864 
19:50	73.3	73.3	73.3	60	58.6	0	2	90	0.00	29.864 
19:55	73.2	73.2	73.2	60	58.5	0	1	90	0.00	29.864 
20:00	73.0	73.0	73.0	59	57.8	0	1	90	0.00	29.862 
20:05	72.8	72.8	72.8	60	58.1	0	0	---	0.00	29.862 
20:10	72.8	72.8	72.8	61	58.6	0	0	---	0.00	29.862 
20:15	72.7	72.7	72.7	60	58.0	0	1	90	0.00	29.863 
20:20	72.3	72.3	72.3	60	57.6	0	1	90	0.00	29.863 
20:25	72.1	72.1	72.1	61	57.9	0	0	---	0.00	29.863 
20:30	72.0	72.0	72.0	62	58.3	0	0	---	0.00	29.862 
20:35	71.8	71.8	71.8	63	58.5	0	0	---	0.00	29.862 
20:40	71.6	71.6	71.6	63	58.3	0	0	---	0.00	29.862 
20:45	71.3	71.3	71.3	63	58.0	0	0	---	0.00	29.857 
20:50	71.1	71.1	71.1	63	57.9	0	0	---	0.00	29.857 
20:55	70.8	70.8	70.8	64	58.0	0	0	---	0.00	29.857 
21:00	70.4	70.4	70.4	65	58.1	0	0	---	0.00	29.858 
21:05	70.1	70.1	70.1	66	58.2	0	0	---	0.00	29.858 
21:10	69.8	69.8	69.8	67	58.3	0	0	---	0.00	29.858 
21:15	69.4	69.4	69.4	68	58.4	0	0	---	0.00	29.857 
21:20	69.1	69.1	69.1	69	58.5	0	0	---	0.00	29.857 
21:25	68.8	68.8	68.8	70	58.6	0	0	---	0.00	29.857 
21:30	68.3	68.3	68.3	71	58.5	0	0	---	0.00	29.864 
21:35	67.9	67.9	67.9	72	58.5	0	0	---	0.00	29.864 
21:40	67.6	67.6	67.6	73	58.6	0	0	---	0.00	29.864 
21:45	67.3	67.3	67.3	74	58.7	0	0	---	0.00	29.867 
21:50	67.1	67.1	67.1	74	58.5	0	0	---	0.00	29.867 
21:55	66.9	66.9	66.9	76	59.1	0	0	---	0.00	29.867 
22:00	66.6	66.6	66.6	77	59.2	0	0	---	0.00	29.870 
22:05	66.3	66.3	66.3	77	58.9	0	0	---	0.00	29.870 
22:10	66.0	66.0	66.0	78	58.9	0	0	---	0.00	29.870 
22:15	65.8	65.8	65.8	78	58.7	0	0	---	0.00	29.877 
22:20	65.6	65.6	65.6	79	58.9	0	0	---	0.00	29.877 
22:25	65.3	65.3	65.3	79	58.6	0	0	---	0.00	29.877 
22:30	65.2	65.2	65.2	80	58.9	0	0	---	0.00	29.881 
22:35	64.8	64.8	64.8	80	58.5	0	0	---	0.00	29.881 
22:40	64.7	64.7	64.7	81	58.7	0	0	---	0.00	29.881 
22:45	64.5	64.5	64.5	81	58.5	0	0	---	0.00	29.890 
22:50	64.3	64.3	64.3	81	58.3	0	0	---	0.00	29.890 
22:55	64.2	64.2	64.2	81	58.2	0	0	---	0.00	29.890 
23:00	63.9	63.9	63.9	82	58.3	0	0	---	0.00	29.897 
23:05	63.9	63.9	63.9	81	57.9	0	1	202	0.00	29.897 
23:10	63.9	63.9	63.9	80	57.6	0	0	---	0.00	29.897 
23:15	63.9	63.9	63.9	80	57.6	0	1	202	0.00	29.896 
23:20	63.9	63.9	63.9	80	57.6	0	0	---	0.00	29.896 
23:25	63.9	63.9	63.9	80	57.6	0	0	---	0.00	29.896 
23:30	63.7	63.7	63.7	80	57.4	0	0	---	0.00	29.896 
23:35	63.5	63.5	63.5	81	57.6	0	0	---	0.00	29.896 
23:40	63.5	63.5	63.5	81	57.6	0	0	---	0.00	29.896 
23:45	63.4	63.4	63.4	81	57.5	0	0	---	0.00	29.897 
23:50	63.2	63.2	63.2	81	57.3	0	0	---	0.00	29.897 
23:55	63.1	63.1	63.1	82	57.5	0	0	---	0.00	29.897 

CoCoRaHS
IN-AL-39
A2 Web Hosting
Creative Commons License
GoDaddy
search engine by freefind advanced

loaded 2018-11-12 20:10:18 • last modified 2010-11-18 10:43:29
Privacy PolicyDisclaimer
• wx.awcolley.com is powered by PmWiki v.2002016 •
• all content (unless otherwise noted) © 2018 A W Colley